• Join FlightAware (Why Join?)
  • Login
  • US Flag 
10:31PM EDT


 

Airport Tracker/Info


-or-


 

Live Flight TrackerFlight Track Log ✈ SWA1910 ✈ 10-Apr-2013 ✈ KBUF - KBWI

Flight Track Log - Related Links

Times and Time Zones

All times are in EDT time to prevent confusion due to time zone crossing. See the SWA1910 flight status page for this flight to view local times or setup timezone preferences in your user account.

Time Position Orientation Groundspeed Altitude Reporting Facility
EDT Latitude Longitude Course Direction KTS MPH feet Rate Location/Type
05:48PM 42.9311 -78.6181 105° East 207 238 6,100  Level Cleveland Center
05:49PM 42.8519 -78.6150 178° South 231 266 9,700 3,180 Climbing Cleveland Center
05:50PM 42.7739 -78.5664 155° Southeast 254 292 12,500 3,240 Climbing Cleveland Center
05:51PM 42.6872 -78.4872 146° Southeast 325 374 16,200 3,420 Climbing Cleveland Center
05:52PM 42.5961 -78.4058 147° Southeast 368 423 19,400 3,120 Climbing Cleveland Center
05:53PM 42.5028 -78.3272 148° Southeast 393 452 22,500 2,760 Climbing Cleveland Center
05:54PM 42.4094 -78.2464 147° Southeast 398 458 25,000 1,200 Climbing Cleveland Center
05:55PM 42.3097 -78.1600 147° Southeast 405 466 25,000  Level Cleveland Center
05:56PM 42.1908 -78.0581 148° Southeast 444 511 25,000  Level Cleveland Center
05:57PM 42.0867 -77.9669 147° Southeast 444 511 25,000  Level Cleveland Center
05:58PM 41.9844 -77.8789 147° Southeast 444 511 25,000  Level Cleveland Center
06:00PM 41.8392 -77.7506 147° Southeast 445 512 25,000  Level New York Center
06:01PM 41.7408 -77.6486 142° Southeast 451 519 25,000  Level New York Center
06:02PM 41.6425 -77.5469 142° Southeast 451 519 25,000  Level New York Center
06:03PM 41.5464 -77.4428 141° Southeast 451 519 25,000  Level New York Center
06:04PM 41.4358 -77.3350 144° Southeast 451 519 25,000 -420 Level New York Center
06:05PM 41.3417 -77.2264 139° Southeast 451 519 24,200 -540 Descending New York Center
06:06PM 41.2542 -77.1103 135° Southeast 451 519 24,000 -540 Descending New York Center
06:08PM 41.0908 -76.8886 134° Southeast 446 513 22,700 -780 Descending New York Center
06:09PM 41.0072 -76.7736 134° Southeast 441 507 21,700 -1,080 Descending New York Center
06:10PM 40.9233 -76.6564 133° Southeast 441 507 20,600 -1,200 Descending New York Center
06:11PM 40.8433 -76.5481 134° Southeast 436 502 19,400 -1,860 Descending New York Center
06:12PM 40.7553 -76.4283 134° Southeast 423 487 17,000 -1,980 Descending New York Center
06:13PM 40.6700 -76.3364 141° Southeast 412 474 15,500 -1,020 Descending New York Center
06:14PM 40.5736 -76.3039 166° South 372 428 15,000 -240 Descending New York Center
06:15PM 40.4842 -76.3022 179° South 356 410 15,100  Climbing New York Center
06:16PM 40.3747 -76.3208 187° South 362 417 15,000 -60 Descending New York Center
06:17PM 40.2797 -76.3458 191° South 362 417 15,000  Level New York Center
06:18PM 40.1828 -76.3733 192° South 362 417 15,000 -660 Level New York Center
06:20PM 39.9833 -76.4333 193° South 361 415 13,100 -900 Descending Potomac TRACON
06:21PM 39.9000 -76.4667 197° South 334 384 12,400 -600 Descending Potomac TRACON
06:22PM 39.8167 -76.4833 189° South 297 342 12,000 -720 Descending Potomac TRACON
06:23PM 39.7333 -76.5000 189° South 304 350 11,000 -1,080 Descending Potomac TRACON
06:24PM 39.6667 -76.5333 201° Southwest 292 336 10,000 -1,200 Descending Potomac TRACON
06:25PM 39.5667 -76.5500 187° South 286 329 8,700 -1,260 Descending Potomac TRACON
06:26PM 39.5000 -76.5833 201° Southwest 279 321 7,400 -1,380 Descending Potomac TRACON
06:27PM 39.4167 -76.6000 189° South 271 312 6,000 -1,320 Descending Potomac TRACON
06:28PM 39.3667 -76.5500 142° Southeast 278 320 5,000 -540 Descending Potomac TRACON
06:29PM 39.3167 -76.4833 134° Southeast 271 312 5,000 -540 Level Potomac TRACON
06:30PM 39.2500 -76.4333 150° Southeast 268 308 4,000 -1,020 Descending Potomac TRACON
06:31PM 39.1833 -76.4333 180° South 244 281 3,000 -900 Descending Potomac TRACON
06:32PM 39.1333 -76.4833 218° Southwest 223 257 2,300 -660 Descending Potomac TRACON
06:33PM 39.1167 -76.5500 252° West 194 223 1,800 -480 Descending Potomac TRACON
06:34PM 39.1167 -76.6167 270° West 170 196 1,400 -600 Descending Potomac TRACON
06:35PM 39.1500 -76.6500 322° Northwest 155 178 600 -720 Descending Potomac TRACON